x

Devils Island, Wi (disw3) Weather Station

8:00am - Wed 22nd Oct 2014 All times are CDT. -5 hours from GMT.

  • Wind
    8mph, 10mph gusts
  • Air Temp 43°f
  • Sea Pressure 1025.7mb
  • Devils Island, Wi
  • Devils Island, Wi

More Historic Weather Station data

Upgrade to MSW Pro to gain access to the past 30 days of data for over 8000 Wavebouys and Weather Stations around the globe.

Join Pro

Comparision Forecast

View Surf forecast
   
Wed 10/22 8:00am 8 10 mph 1025.7mb 43f
7:00am 6 8 mph 1025.5mb 44f
6:00am 7 9 mph 1025.3mb 44f
5:00am 7 8 mph 1024.9mb 45f
4:00am 8 10 mph 1024.7mb 45f
3:00am 6 7 mph 1024.6mb 45f
2:00am 8 9 mph 1024.6mb 45f
1:00am 9 11 mph 1024.9mb 45f
12:00am 9 10 mph 1025mb 45f
Tue 10/21 11:00pm 13 15 mph 1024.8mb 45f
10:00pm 13 15 mph 1025.1mb 45f
9:00pm 15 17 mph 1025mb 44f
8:00pm 18 20 mph 1024.7mb 44f
7:00pm 18 21 mph 1024.3mb 44f
6:00pm 15 17 mph 1024.7mb 44f
5:00pm 15 16 mph 1024.9mb 43f
4:00pm 14 15 mph 1025.3mb 43f
3:00pm 15 16 mph 1025.5mb 43f
2:00pm 10 11 mph 1025.8mb 42f
1:00pm 14 17 mph 1026mb 42f
12:00pm 11 16 mph 1026.4mb 42f
11:00am 15 17 mph 1026.3mb 42f
10:00am 13 15 mph 1025.9mb 42f
9:00am 14 17 mph 1025.7mb 42f
8:00am 8 11 mph 1025.3mb 42f
7:00am 20 22 mph 1024.7mb 43f
6:00am 15 18 mph 1024.3mb 43f
5:00am 15 18 mph 1023.6mb 43f
4:00am 9 10 mph 1023.2mb 43f
3:00am 21 24 mph 1022.8mb 43f
2:00am 20 22 mph 1022.4mb 44f
1:00am 18 23 mph 1021.9mb 44f
12:00am 23 25 mph 1021.3mb 44f
Mon 10/20 11:00pm 23 25 mph 1021.1mb 45f
10:00pm 20 21 mph 1020.4mb 46f
9:00pm 11 14 mph 1019.8mb 48f
8:00pm 14 17 mph 1019.1mb 49f
7:00pm 16 17 mph 1018.4mb 49f
6:00pm 11 14 mph 1017.6mb 50f
5:00pm 9 10 mph 1016.9mb 50f
4:00pm 11 13 mph 1016.3mb 49f
3:00pm 9 10 mph 1016mb 48f
2:00pm 8 9 mph 1015.4mb 49f
1:00pm 16 17 mph 1015mb 49f
12:00pm 13 14 mph 1014.9mb 49f
11:00am 13 15 mph 1014.4mb 49f
10:00am 13 14 mph 1014mb 49f
9:00am 13 14 mph 1013.5mb 49f
8:00am 15 17 mph 1012.9mb 50f
7:00am 14 15 mph 1012.1mb 50f
6:00am 9 10 mph 1011.5mb 50f
5:00am 15 17 mph 1011.3mb 51f
4:00am 10 11 mph 1010.7mb 51f
3:00am 13 14 mph 1010.1mb 51f
2:00am 15 16 mph 1009.5mb 51f
1:00am 15 17 mph 1009.1mb 51f
12:00am 21 24 mph 1008.7mb 52f
Sun 10/19 11:00pm 17 21 mph 1008.2mb 52f
10:00pm 10 13 mph 1007.7mb 53f
9:00pm 7
mph
1007mb 54f
8:00pm 9 11 mph 1007mb 56f
7:00pm 11
mph
1006.7mb 55f
6:00pm 11 13 mph 1006.5mb 53f
5:00pm 9 10 mph 1006.3mb 52f
4:00pm 9 11 mph 1006.3mb 51f
3:00pm 9 11 mph 1006.7mb 50f
2:00pm 8 9 mph 1007.5mb 49f
1:00pm 3 6 mph 1008.3mb 49f
12:00pm 6 7 mph 1009.5mb 48f
11:00am 7 9 mph 1009.9mb 47f
10:00am 9 11 mph 1011.4mb 45f
9:00am 10 16 mph 1011.9mb 44f
8:00am 15 20 mph 1013.1mb 44f
7:00am 9 13 mph 1014.1mb 43f
6:00am 8 9 mph 1015.6mb 43f
5:00am 8 11 mph 1016.5mb 43f
4:00am 7 9 mph 1016.9mb 43f
3:00am 9 11 mph 1017.8mb 45f
2:00am 11 14 mph 1018.6mb 44f
1:00am 7 8 mph 1018.9mb 43f
12:00am 10 14 mph 1018.9mb 43f
Sat 10/18 11:00pm 8 11 mph 1019.5mb 42f
10:00pm 8 9 mph 1020.4mb 42f
9:00pm 8 9 mph 1021.1mb 41f
8:00pm 8 9 mph 1021.5mb 41f
7:00pm 7 8 mph 1022mb 41f
6:00pm 7
mph
1022.4mb 42f
5:00pm 5 7 mph 1022.5mb 42f
4:00pm 2 6 mph 1023.1mb 42f
3:00pm 3 5 mph 1023.4mb 40f